createdAt,value
2019-05-13T00:02:31.164Z,7.50
2019-05-13T00:05:04.028Z,7.50
2019-05-13T00:07:36.689Z,7.60
2019-05-13T00:10:09.568Z,7.60
2019-05-13T00:12:44.535Z,7.60
2019-05-13T00:15:16.683Z,7.50
2019-05-13T00:17:49.454Z,7.60
2019-05-13T00:20:24.174Z,7.60
2019-05-13T00:22:57.099Z,7.60
2019-05-13T00:25:30.444Z,7.20
2019-05-13T00:28:03.991Z,7.20
2019-05-13T00:30:37.424Z,7.20
2019-05-13T00:33:10.219Z,7.30
2019-05-13T00:35:44.328Z,7.10
2019-05-13T00:38:17.774Z,7.00
2019-05-13T00:40:51.148Z,7.10
2019-05-13T00:43:24.480Z,7.20
2019-05-13T00:45:58.386Z,7.20
2019-05-13T00:48:33.303Z,7.30
2019-05-13T00:51:05.804Z,7.30
2019-05-13T00:53:39.140Z,7.40
2019-05-13T00:56:13.355Z,7.50
2019-05-13T00:58:46.772Z,7.50
2019-05-13T01:01:19.811Z,7.60
2019-05-13T01:03:53.313Z,7.60
2019-05-13T01:06:27.191Z,7.60
2019-05-13T01:08:59.882Z,7.50
2019-05-13T01:11:34.295Z,7.50
2019-05-13T01:14:07.600Z,7.50
2019-05-13T01:16:40.441Z,7.50
2019-05-13T01:19:14.306Z,7.50
2019-05-13T01:21:47.764Z,7.50
2019-05-13T01:24:20.476Z,7.50
2019-05-13T01:26:54.117Z,7.50
2019-05-13T01:29:27.606Z,7.40
2019-05-13T01:32:00.491Z,7.40
2019-05-13T01:34:33.988Z,7.40
2019-05-13T01:37:07.571Z,7.40
2019-05-13T01:39:40.416Z,7.40
2019-05-13T01:42:13.892Z,7.40
2019-05-13T01:44:46.999Z,7.30
2019-05-13T01:47:20.920Z,7.30
2019-05-13T01:49:54.316Z,7.40
2019-05-13T01:52:28.297Z,7.40
2019-05-13T01:55:01.024Z,7.30
2019-05-13T01:57:34.318Z,7.20
2019-05-13T02:00:07.777Z,7.20
2019-05-13T02:02:40.587Z,7.30
2019-05-13T02:05:14.070Z,7.40
2019-05-13T02:07:57.735Z,7.30
2019-05-13T02:10:44.342Z,7.40
2019-05-13T02:13:17.682Z,7.30
2019-05-13T02:15:50.459Z,7.20
2019-05-13T02:18:24.460Z,7.10
2019-05-13T02:20:58.221Z,7.30
2019-05-13T02:23:30.898Z,6.90
2019-05-13T02:26:04.478Z,6.90
2019-05-13T02:28:37.605Z,6.60
2019-05-13T02:31:16.488Z,6.60
2019-05-13T02:33:44.946Z,6.80
2019-05-13T02:36:18.193Z,6.90
2019-05-13T02:38:53.144Z,6.90
2019-05-13T02:41:25.538Z,6.90
2019-05-13T02:43:58.940Z,6.90
2019-05-13T02:46:33.679Z,6.90
2019-05-13T02:49:06.306Z,7.00
2019-05-13T02:51:42.579Z,7.10
2019-05-13T02:54:14.050Z,7.20
2019-05-13T02:56:46.940Z,7.20
2019-05-13T02:59:22.448Z,7.20
2019-05-13T03:01:54.369Z,7.30
2019-05-13T03:04:27.160Z,7.30
2019-05-13T03:07:02.980Z,7.30
2019-05-13T03:09:35.738Z,7.20
2019-05-13T03:12:08.693Z,7.20
2019-05-13T03:14:47.393Z,7.30
2019-05-13T03:17:17.685Z,7.30
2019-05-13T03:19:53.084Z,7.20
2019-05-13T03:22:25.100Z,7.20
2019-05-13T03:24:58.013Z,7.10
2019-05-13T03:27:33.855Z,6.90
2019-05-13T03:30:05.385Z,6.80
2019-05-13T03:32:50.218Z,6.90
2019-05-13T03:35:16.599Z,6.60
2019-05-13T03:37:47.995Z,6.80
2019-05-13T03:40:23.151Z,6.80
2019-05-13T03:42:55.403Z,6.80
2019-05-13T03:45:28.280Z,6.80
2019-05-13T03:48:04.081Z,6.80
2019-05-13T03:50:35.679Z,6.80
2019-05-13T03:53:08.900Z,6.90
2019-05-13T03:55:43.425Z,7.00
2019-05-13T03:58:17.190Z,7.00
2019-05-13T04:00:51.888Z,7.00
2019-05-13T04:03:24.790Z,6.90
2019-05-13T04:05:57.580Z,7.00
2019-05-13T04:08:32.667Z,7.00
2019-05-13T04:11:05.490Z,7.10
2019-05-13T04:13:38.376Z,7.20
2019-05-13T04:16:12.767Z,7.10
2019-05-13T04:18:45.650Z,7.00
2019-05-13T04:21:18.365Z,7.00
2019-05-13T04:23:53.020Z,7.00
2019-05-13T04:26:27.255Z,7.00
2019-05-13T04:29:03.084Z,7.00
2019-05-13T04:31:34.648Z,7.10
2019-05-13T04:34:07.346Z,7.00
2019-05-13T04:36:43.068Z,6.90
2019-05-13T04:39:14.832Z,6.70
2019-05-13T04:41:47.563Z,7.00
2019-05-13T04:44:23.960Z,7.00
2019-05-13T04:46:55.562Z,7.10
2019-05-13T04:49:28.519Z,7.20
2019-05-13T04:52:03.374Z,7.00
2019-05-13T04:54:36.959Z,7.10
2019-05-13T04:57:12.341Z,7.10
2019-05-13T04:59:44.704Z,7.00
2019-05-13T05:02:17.906Z,7.20
2019-05-13T05:04:52.447Z,7.20
2019-05-13T05:07:25.309Z,7.10
2019-05-13T05:10:23.420Z,7.10
2019-05-13T05:12:32.844Z,7.20
2019-05-13T05:15:06.093Z,7.10
2019-05-13T05:17:38.924Z,7.30
2019-05-13T05:20:12.500Z,7.40
2019-05-13T05:22:45.793Z,7.30
2019-05-13T05:25:18.923Z,7.30
2019-05-13T05:27:52.133Z,7.30
2019-05-13T05:30:25.032Z,7.20
2019-05-13T05:32:57.839Z,7.00
2019-05-13T05:35:32.323Z,6.90
2019-05-13T05:38:05.854Z,7.00
2019-05-13T05:40:38.639Z,6.80
2019-05-13T05:43:11.653Z,6.90
2019-05-13T05:45:44.914Z,7.00
2019-05-13T05:48:18.073Z,6.90
2019-05-13T05:50:51.629Z,7.00
2019-05-13T05:53:25.114Z,6.90
2019-05-13T05:55:59.469Z,7.10
2019-05-13T05:58:32.763Z,7.00
2019-05-13T06:01:05.828Z,6.80
2019-05-13T06:03:39.274Z,7.00
2019-05-13T06:06:13.656Z,7.00
2019-05-13T06:08:46.633Z,7.00
2019-05-13T06:11:22.127Z,6.90
2019-05-13T06:13:54.845Z,7.00
2019-05-13T06:16:27.809Z,7.00
2019-05-13T06:19:01.466Z,7.00
2019-05-13T06:21:35.535Z,7.10
2019-05-13T06:24:08.484Z,7.10
2019-05-13T06:26:42.039Z,7.20
2019-05-13T06:29:15.479Z,7.20
2019-05-13T06:31:48.113Z,7.40
2019-05-13T06:34:21.556Z,7.40
2019-05-13T06:36:54.438Z,7.50
2019-05-13T06:39:27.597Z,7.50
2019-05-13T06:42:02.883Z,7.40
2019-05-13T06:44:34.945Z,7.30
2019-05-13T06:47:07.723Z,7.40
2019-05-13T06:49:42.769Z,7.50
2019-05-13T06:52:15.033Z,7.40
2019-05-13T06:54:47.704Z,7.50
2019-05-13T06:57:22.058Z,7.50
2019-05-13T06:59:55.028Z,7.20
2019-05-13T07:02:27.810Z,7.40
2019-05-13T07:05:02.371Z,7.40
2019-05-13T07:07:36.438Z,7.40
2019-05-13T07:10:09.428Z,7.50
2019-05-13T07:12:42.788Z,7.30
2019-05-13T07:15:16.234Z,7.00
2019-05-13T07:17:51.814Z,7.20
2019-05-13T07:20:23.480Z,7.30
2019-05-13T07:22:56.218Z,7.30
2019-05-13T07:25:29.034Z,7.50
2019-05-13T07:28:02.269Z,7.20
2019-05-13T07:30:35.843Z,7.30
2019-05-13T07:33:08.737Z,7.40
2019-05-13T07:35:44.205Z,7.50
2019-05-13T07:38:16.884Z,7.40
2019-05-13T07:40:52.133Z,7.40
2019-05-13T07:43:25.178Z,7.70
2019-05-13T07:45:57.838Z,7.60
2019-05-13T07:48:31.921Z,7.70
2019-05-13T07:51:05.193Z,7.70
2019-05-13T07:53:38.440Z,7.80
2019-05-13T07:56:12.491Z,7.80
2019-05-13T07:58:45.714Z,7.90
2019-05-13T08:01:18.488Z,7.90
2019-05-13T08:03:51.722Z,7.90
2019-05-13T08:06:24.586Z,7.70
2019-05-13T08:08:57.343Z,7.90
2019-05-13T08:11:36.819Z,8.00
2019-05-13T08:14:05.083Z,7.80
2019-05-13T08:16:37.803Z,7.90
2019-05-13T08:19:12.331Z,7.90
2019-05-13T08:21:45.643Z,7.90
2019-05-13T08:24:19.203Z,7.90
2019-05-13T08:26:53.159Z,7.80
2019-05-13T08:29:26.899Z,7.40
2019-05-13T08:32:02.768Z,7.60
2019-05-13T08:34:35.294Z,7.70
2019-05-13T08:37:08.085Z,7.80
2019-05-13T08:39:41.448Z,7.70
2019-05-13T08:42:19.008Z,7.60
2019-05-13T08:44:52.306Z,7.60
2019-05-13T08:47:25.498Z,7.60
2019-05-13T08:50:03.344Z,7.60
2019-05-13T08:52:34.194Z,7.80
2019-05-13T08:55:07.018Z,7.80
2019-05-13T08:57:41.865Z,7.70
2019-05-13T09:00:15.030Z,7.70
2019-05-13T09:02:47.724Z,7.70
2019-05-13T09:05:21.555Z,7.70
2019-05-13T09:07:54.794Z,7.70
2019-05-13T09:10:27.469Z,7.70
2019-05-13T09:13:01.855Z,7.80
2019-05-13T09:15:34.946Z,7.70
2019-05-13T09:18:07.934Z,7.90
2019-05-13T09:20:41.625Z,8.00
2019-05-13T09:23:14.828Z,7.90
2019-05-13T09:25:47.603Z,7.90
2019-05-13T09:28:21.841Z,7.90
2019-05-13T09:30:54.845Z,7.90
2019-05-13T09:33:27.785Z,8.00
2019-05-13T09:36:02.101Z,8.10
2019-05-13T09:38:35.432Z,8.00
2019-05-13T09:41:08.723Z,8.00
2019-05-13T09:43:42.168Z,7.80
2019-05-13T09:46:15.194Z,7.80
2019-05-13T09:48:48.065Z,7.90
2019-05-13T09:51:21.678Z,8.00
2019-05-13T09:53:55.474Z,7.90
2019-05-13T09:56:28.215Z,7.70
2019-05-13T09:59:01.926Z,7.90
2019-05-13T10:01:35.704Z,8.00
2019-05-13T10:04:08.935Z,8.20
2019-05-13T10:06:42.322Z,8.20
2019-05-13T10:09:15.448Z,8.10
2019-05-13T10:11:51.745Z,8.00
2019-05-13T10:14:23.418Z,8.00
2019-05-13T10:16:56.849Z,7.90
2019-05-13T10:19:31.593Z,7.90
2019-05-13T10:22:04.228Z,7.70
2019-05-13T10:24:37.688Z,7.70
2019-05-13T10:27:12.246Z,7.60
2019-05-13T10:29:44.893Z,7.30
2019-05-13T10:32:17.812Z,7.60
2019-05-13T10:34:51.998Z,7.40
2019-05-13T10:37:25.256Z,7.70
2019-05-13T10:39:58.063Z,7.80
2019-05-13T10:42:30.988Z,7.70
2019-05-13T10:45:03.819Z,7.90
2019-05-13T10:47:36.812Z,7.80
2019-05-13T10:50:09.543Z,7.70
2019-05-13T10:52:43.142Z,7.90
2019-05-13T10:55:16.413Z,7.80
2019-05-13T10:57:51.357Z,7.90
2019-05-13T11:00:24.071Z,7.90
2019-05-13T11:02:56.888Z,7.90
2019-05-13T11:05:32.414Z,7.80
2019-05-13T11:08:04.128Z,7.80
2019-05-13T11:10:37.078Z,7.90
2019-05-13T11:13:10.793Z,8.00
2019-05-13T11:15:45.439Z,8.00
2019-05-13T11:18:19.834Z,7.90
2019-05-13T11:20:53.377Z,8.00
2019-05-13T11:23:26.345Z,8.10
2019-05-13T11:25:59.099Z,8.10
2019-05-13T11:28:32.171Z,8.20
2019-05-13T11:31:05.288Z,8.20
2019-05-13T11:33:38.505Z,8.10
2019-05-13T11:36:12.881Z,8.30
2019-05-13T11:38:45.653Z,8.40
2019-05-13T11:41:18.523Z,8.00
2019-05-13T11:44:11.473Z,8.10
2019-05-13T11:46:25.756Z,8.30
2019-05-13T11:48:58.530Z,8.30
2019-05-13T11:51:32.429Z,8.30
2019-05-13T11:54:06.149Z,8.20
2019-05-13T11:56:46.371Z,8.10
2019-05-13T11:59:14.299Z,8.30
2019-05-13T12:01:47.799Z,8.30
2019-05-13T12:04:23.950Z,8.40
2019-05-13T12:06:55.306Z,8.60
2019-05-13T12:09:28.039Z,8.50
2019-05-13T12:12:03.352Z,8.60
2019-05-13T12:14:56.438Z,8.60
2019-05-13T12:17:14.104Z,8.60
2019-05-13T12:19:45.808Z,8.60
2019-05-13T12:22:22.717Z,8.80
2019-05-13T12:24:53.197Z,8.80
2019-05-13T12:27:26.728Z,8.70
2019-05-13T12:30:02.776Z,8.70
2019-05-13T12:32:34.063Z,8.90
2019-05-13T12:35:06.943Z,8.90
2019-05-13T12:37:42.041Z,9.00
2019-05-13T12:40:14.364Z,8.90
2019-05-13T12:42:47.461Z,9.10
2019-05-13T12:45:22.420Z,8.70
2019-05-13T12:47:55.654Z,8.80
2019-05-13T12:50:28.825Z,8.90
2019-05-13T12:53:02.871Z,9.00
2019-05-13T12:55:35.823Z,9.00
2019-05-13T12:58:12.146Z,8.80
2019-05-13T13:00:44.470Z,8.70
2019-05-13T13:03:17.333Z,8.70
2019-05-13T13:05:50.796Z,8.80
2019-05-13T13:08:41.975Z,8.70
2019-05-13T13:10:58.605Z,8.80
2019-05-13T13:13:54.084Z,8.80
2019-05-13T13:16:05.973Z,8.80
2019-05-13T13:18:38.968Z,8.90
2019-05-13T13:21:14.488Z,9.00
2019-05-13T13:23:47.497Z,9.00
2019-05-13T13:26:21.774Z,9.10
2019-05-13T13:28:56.813Z,9.00
2019-05-13T13:31:33.553Z,9.00
2019-05-13T13:34:12.220Z,9.00
2019-05-13T13:36:45.273Z,8.90
2019-05-13T13:39:15.521Z,9.00
2019-05-13T13:41:48.495Z,9.10
2019-05-13T13:44:24.532Z,9.00
2019-05-13T13:46:56.463Z,9.00
2019-05-13T13:49:33.731Z,9.00
2019-05-13T13:52:03.871Z,9.00
2019-05-13T13:54:36.845Z,8.80
2019-05-13T13:57:13.484Z,8.90
2019-05-13T14:00:14.230Z,8.80
2019-05-13T14:02:19.107Z,8.70
2019-05-13T14:04:53.995Z,8.50
2019-05-13T14:07:34.524Z,8.70
2019-05-13T14:10:06.658Z,8.60
2019-05-13T14:12:35.910Z,8.50
2019-05-13T14:15:08.691Z,8.40
2019-05-13T14:17:41.874Z,8.20
2019-05-13T14:20:15.355Z,8.20
2019-05-13T14:22:48.011Z,8.20
2019-05-13T14:25:22.405Z,8.20
2019-05-13T14:27:55.676Z,8.00
2019-05-13T14:30:28.468Z,8.00
2019-05-13T14:33:02.337Z,8.20
2019-05-13T14:35:35.704Z,8.10
2019-05-13T14:38:11.734Z,8.10
2019-05-13T14:40:43.834Z,8.10
2019-05-13T14:43:17.434Z,8.00
2019-05-13T14:45:52.113Z,7.90
2019-05-13T14:48:25.432Z,8.00
2019-05-13T14:50:59.058Z,7.90
2019-05-13T14:53:33.274Z,7.90
2019-05-13T14:56:06.195Z,7.90
2019-05-13T14:58:41.703Z,7.80
2019-05-13T15:01:18.862Z,7.80
2019-05-13T15:03:48.442Z,7.80
2019-05-13T15:06:22.311Z,7.80
2019-05-13T15:08:55.274Z,7.90
2019-05-13T15:11:28.370Z,8.00
2019-05-13T15:14:02.466Z,8.00
2019-05-13T15:16:35.814Z,8.00
2019-05-13T15:19:11.814Z,7.80
2019-05-13T15:21:44.128Z,7.90
2019-05-13T15:24:16.894Z,7.90
2019-05-13T15:26:51.693Z,7.90
2019-05-13T15:29:24.610Z,7.80
2019-05-13T15:31:57.397Z,8.00
2019-05-13T15:34:31.782Z,8.10
2019-05-13T15:37:05.260Z,8.10
2019-05-13T15:39:38.653Z,7.80
2019-05-13T15:42:12.086Z,7.70
2019-05-13T15:44:45.113Z,7.60
2019-05-13T15:47:23.386Z,7.70
2019-05-13T15:49:52.445Z,7.60
2019-05-13T15:52:25.294Z,7.50
2019-05-13T15:55:01.265Z,7.70
2019-05-13T15:57:33.628Z,7.80
2019-05-13T16:00:06.394Z,7.80
2019-05-13T16:02:39.313Z,7.80
2019-05-13T16:05:13.782Z,7.80
2019-05-13T16:07:47.218Z,7.80
2019-05-13T16:10:20.749Z,8.00
2019-05-13T16:12:53.483Z,8.10
2019-05-13T16:15:26.440Z,8.10
2019-05-13T16:17:59.604Z,8.00
2019-05-13T16:20:32.418Z,8.00
2019-05-13T16:23:05.984Z,7.80
2019-05-13T16:25:41.447Z,8.00
2019-05-13T16:28:13.394Z,8.00
2019-05-13T16:30:46.235Z,8.00
2019-05-13T16:33:19.455Z,8.10
2019-05-13T16:35:52.283Z,7.90
2019-05-13T16:38:25.025Z,7.80
2019-05-13T16:40:58.163Z,7.90
2019-05-13T16:43:32.066Z,8.00
2019-05-13T16:46:11.927Z,8.00
2019-05-13T16:48:44.450Z,7.90
2019-05-13T16:51:17.449Z,8.00
2019-05-13T16:53:52.262Z,7.80
2019-05-13T16:56:29.843Z,7.80
2019-05-13T16:59:01.568Z,7.70
2019-05-13T17:01:35.197Z,7.60
2019-05-13T17:04:08.733Z,7.50
2019-05-13T17:06:41.744Z,7.40
2019-05-13T17:09:14.720Z,7.40
2019-05-13T17:11:48.123Z,7.30
2019-05-13T17:14:21.593Z,7.30
2019-05-13T17:16:54.498Z,7.40
2019-05-13T17:19:27.284Z,7.30
2019-05-13T17:22:02.330Z,7.30
2019-05-13T17:24:34.504Z,7.20
2019-05-13T17:27:07.168Z,7.20
2019-05-13T17:29:40.370Z,7.10
2019-05-13T17:32:14.359Z,7.20
2019-05-13T17:34:47.364Z,7.30
2019-05-13T17:37:22.108Z,7.10
2019-05-13T17:39:55.319Z,7.00
2019-05-13T17:42:28.301Z,7.10
2019-05-13T17:45:02.381Z,7.00
2019-05-13T17:47:35.294Z,6.80
2019-05-13T17:50:08.603Z,6.60
2019-05-13T17:52:41.412Z,6.70
2019-05-13T17:55:14.278Z,6.80
2019-05-13T17:57:47.009Z,6.70
2019-05-13T18:00:21.554Z,6.70
2019-05-13T18:02:54.277Z,6.70
2019-05-13T18:05:27.662Z,6.80
2019-05-13T18:08:01.850Z,6.70
2019-05-13T18:10:34.838Z,6.60
2019-05-13T18:13:07.518Z,6.70
2019-05-13T18:15:40.441Z,6.80
2019-05-13T18:18:13.228Z,6.80
2019-05-13T18:20:47.007Z,6.80
2019-05-13T18:23:19.889Z,6.80
2019-05-13T18:25:52.704Z,6.80
2019-05-13T18:28:30.566Z,7.10
2019-05-13T18:31:01.743Z,7.00
2019-05-13T18:33:34.567Z,7.00
2019-05-13T18:36:07.512Z,6.90
2019-05-13T18:38:41.854Z,6.90
2019-05-13T18:41:15.159Z,7.00
2019-05-13T18:43:47.935Z,7.00
2019-05-13T18:46:21.700Z,7.00
2019-05-13T18:48:59.047Z,6.90
2019-05-13T18:51:31.561Z,7.10
2019-05-13T18:54:04.216Z,7.10
2019-05-13T18:56:36.998Z,7.00
2019-05-13T18:59:12.297Z,6.90
2019-05-13T19:01:44.716Z,6.80
2019-05-13T19:04:17.891Z,6.70
2019-05-13T19:06:51.614Z,6.70
2019-05-13T19:09:24.933Z,6.80
2019-05-13T19:11:57.733Z,6.70
2019-05-13T19:14:31.839Z,6.70
2019-05-13T19:17:05.021Z,6.60
2019-05-13T19:19:38.061Z,6.60
2019-05-13T19:22:12.306Z,6.70
2019-05-13T19:24:45.326Z,6.80
2019-05-13T19:27:18.156Z,6.90
2019-05-13T19:29:52.385Z,6.80
2019-05-13T19:32:25.440Z,6.90
2019-05-13T19:34:58.720Z,7.00
2019-05-13T19:37:31.749Z,7.00
2019-05-13T19:40:04.708Z,6.80
2019-05-13T19:42:37.563Z,6.70
2019-05-13T19:45:10.383Z,7.00
2019-05-13T19:47:43.318Z,6.90
2019-05-13T19:50:16.080Z,6.90
2019-05-13T19:52:48.889Z,7.00
2019-05-13T19:55:21.733Z,7.10
2019-05-13T19:57:54.597Z,7.00
2019-05-13T20:00:27.689Z,7.00
2019-05-13T20:03:00.774Z,7.00
2019-05-13T20:05:33.503Z,7.10
2019-05-13T20:08:06.392Z,7.10
2019-05-13T20:10:39.315Z,7.10
2019-05-13T20:13:12.093Z,7.00
2019-05-13T20:15:45.409Z,7.00
2019-05-13T20:18:18.468Z,7.00
2019-05-13T20:20:51.901Z,6.90
2019-05-13T20:23:25.003Z,6.80
2019-05-13T20:25:57.844Z,6.80
2019-05-13T20:28:31.727Z,6.90
2019-05-13T20:31:04.896Z,6.90
2019-05-13T20:33:40.136Z,7.00
2019-05-13T20:36:12.756Z,6.90
2019-05-13T20:38:45.582Z,7.00
2019-05-13T20:41:18.425Z,6.90
2019-05-13T20:43:52.057Z,6.90
2019-05-13T20:46:25.216Z,6.80
2019-05-13T20:48:58.009Z,6.70
2019-05-13T20:51:31.436Z,6.60
2019-05-13T20:54:04.530Z,6.60
2019-05-13T20:56:37.409Z,6.60
2019-05-13T20:59:11.488Z,6.70
2019-05-13T21:01:44.138Z,6.70
2019-05-13T21:04:17.023Z,6.70
2019-05-13T21:06:51.603Z,6.80
2019-05-13T21:09:25.064Z,6.90
2019-05-13T21:11:57.757Z,6.90
2019-05-13T21:14:32.016Z,6.90
2019-05-13T21:17:05.397Z,6.90
2019-05-13T21:19:39.798Z,6.80
2019-05-13T21:22:13.091Z,6.80
2019-05-13T21:24:45.978Z,6.80
2019-05-13T21:27:18.738Z,6.80
2019-05-13T21:29:52.043Z,6.80
2019-05-13T21:32:25.103Z,6.80
2019-05-13T21:34:58.106Z,7.00
2019-05-13T21:37:30.871Z,7.00
2019-05-13T21:40:03.710Z,7.00
2019-05-13T21:42:37.006Z,7.10
2019-05-13T21:45:11.175Z,7.00
2019-05-13T21:47:44.232Z,6.80
2019-05-13T21:50:29.459Z,6.80
2019-05-13T21:52:51.993Z,6.80
2019-05-13T21:55:25.213Z,7.00
2019-05-13T21:57:58.197Z,6.90
2019-05-13T22:00:33.023Z,6.70
2019-05-13T22:03:05.890Z,6.70
2019-05-13T22:05:38.709Z,6.70
2019-05-13T22:08:12.135Z,6.60
2019-05-13T22:10:45.784Z,6.60
2019-05-13T22:13:18.553Z,6.70
2019-05-13T22:15:52.444Z,6.70
2019-05-13T22:18:25.398Z,6.60
2019-05-13T22:20:58.313Z,6.70
2019-05-13T22:23:32.201Z,6.60
2019-05-13T22:26:05.893Z,6.70
2019-05-13T22:28:38.963Z,6.70
2019-05-13T22:31:11.874Z,6.80
2019-05-13T22:33:45.383Z,6.90
2019-05-13T22:36:18.539Z,6.90
2019-05-13T22:38:51.790Z,7.10
2019-05-13T22:41:24.914Z,6.90
2019-05-13T22:43:58.992Z,6.80
2019-05-13T22:46:32.427Z,6.60
2019-05-13T22:49:05.204Z,6.80
2019-05-13T22:51:38.311Z,7.00
2019-05-13T22:54:11.953Z,6.90
2019-05-13T22:56:45.574Z,7.10
2019-05-13T22:59:18.608Z,7.00
2019-05-13T23:01:52.363Z,7.20
2019-05-13T23:04:25.289Z,7.20
2019-05-13T23:06:58.328Z,7.20
2019-05-13T23:09:32.166Z,7.30
2019-05-13T23:12:05.573Z,7.30
2019-05-13T23:14:38.290Z,7.30
2019-05-13T23:17:12.505Z,7.30
2019-05-13T23:19:45.754Z,7.30
2019-05-13T23:22:18.541Z,7.30
2019-05-13T23:24:51.323Z,7.30
2019-05-13T23:27:24.165Z,7.40
2019-05-13T23:29:57.403Z,7.30
2019-05-13T23:32:32.039Z,7.20
2019-05-13T23:35:04.918Z,7.10
2019-05-13T23:37:38.228Z,7.00
2019-05-13T23:40:11.880Z,7.10
2019-05-13T23:42:44.854Z,7.00
2019-05-13T23:45:17.494Z,7.10
2019-05-13T23:47:51.042Z,7.10
2019-05-13T23:50:24.559Z,7.20
2019-05-13T23:52:57.397Z,7.10
2019-05-13T23:55:32.137Z,7.10
2019-05-13T23:58:05.114Z,7.20
